sensor_id;sensor_type;location;lat;lon;timestamp;pressure;altitude;pressure_sealevel;temperature;humidity
70521;BME280;58442;52.716;23.560;2022-07-12T00:00:19;101150.84;;;13.43;76.07
70521;BME280;58442;52.716;23.560;2022-07-12T00:02:30;101155.51;;;13.43;76.04
70521;BME280;58442;52.716;23.560;2022-07-12T00:04:31;101143.81;;;13.42;75.99
70521;BME280;58442;52.716;23.560;2022-07-12T00:06:32;101153.95;;;13.41;76.03
70521;BME280;58442;52.716;23.560;2022-07-12T00:08:34;101148.48;;;13.41;76.04
70521;BME280;58442;52.716;23.560;2022-07-12T00:10:44;101146.90;;;13.40;76.06
70521;BME280;58442;52.716;23.560;2022-07-12T00:12:46;101147.25;;;13.39;76.15
70521;BME280;58442;52.716;23.560;2022-07-12T00:14:47;101141.34;;;13.37;76.22
70521;BME280;58442;52.716;23.560;2022-07-12T00:16:49;101142.13;;;13.37;76.16
70521;BME280;58442;52.716;23.560;2022-07-12T00:18:59;101141.34;;;13.37;76.15
70521;BME280;58442;52.716;23.560;2022-07-12T00:21:00;101142.49;;;13.36;76.21
70521;BME280;58442;52.716;23.560;2022-07-12T00:23:02;101135.09;;;13.36;76.20
70521;BME280;58442;52.716;23.560;2022-07-12T00:25:03;101136.67;;;13.37;76.13
70521;BME280;58442;52.716;23.560;2022-07-12T00:27:14;101136.34;;;13.39;76.07
70521;BME280;58442;52.716;23.560;2022-07-12T00:29:15;101139.07;;;13.39;76.01
70521;BME280;58442;52.716;23.560;2022-07-12T00:31:17;101136.34;;;13.39;75.96
70521;BME280;58442;52.716;23.560;2022-07-12T00:33:18;101132.83;;;13.38;75.89
70521;BME280;58442;52.716;23.560;2022-07-12T00:35:29;101138.62;;;13.37;75.62
70521;BME280;58442;52.716;23.560;2022-07-12T00:37:30;101139.76;;;13.36;75.95
70521;BME280;58442;52.716;23.560;2022-07-12T00:39:32;101140.92;;;13.35;75.95
70521;BME280;58442;52.716;23.560;2022-07-12T00:41:33;101138.19;;;13.35;75.95
70521;BME280;58442;52.716;23.560;2022-07-12T00:43:44;101136.61;;;13.34;75.90
70521;BME280;58442;52.716;23.560;2022-07-12T00:45:45;101143.65;;;13.35;75.94
70521;BME280;58442;52.716;23.560;2022-07-12T00:47:47;101140.03;;;13.31;75.98
70521;BME280;58442;52.716;23.560;2022-07-12T00:49:50;101131.84;;;13.31;76.01
70521;BME280;58442;52.716;23.560;2022-07-12T00:51:59;101134.57;;;13.31;76.05
70521;BME280;58442;52.716;23.560;2022-07-12T00:54:00;101135.39;;;13.31;76.05
70521;BME280;58442;52.716;23.560;2022-07-12T01:00:55;101128.69;;;13.29;76.18
70521;BME280;58442;52.716;23.560;2022-07-12T01:02:59;101128.69;;;13.29;76.21
70521;BME280;58442;52.716;23.560;2022-07-12T01:05:04;101120.50;;;13.29;76.22
70521;BME280;58442;52.716;23.560;2022-07-12T01:07:06;101129.12;;;13.31;76.26
70521;BME280;58442;52.716;23.560;2022-07-12T01:09:07;101123.65;;;13.31;76.24
70521;BME280;58442;52.716;23.560;2022-07-12T01:11:08;101130.73;;;13.32;76.21
70521;BME280;58442;52.716;23.560;2022-07-12T01:13:11;101128.42;;;13.34;76.21
70521;BME280;58442;52.716;23.560;2022-07-12T01:15:13;101123.32;;;13.32;76.28
70521;BME280;58442;52.716;23.560;2022-07-12T01:17:14;101131.51;;;13.32;76.34
70521;BME280;58442;52.716;23.560;2022-07-12T01:19:20;101127.63;;;13.33;76.39
70521;BME280;58442;52.716;23.560;2022-07-12T01:21:30;101115.92;;;13.33;76.53
70521;BME280;58442;52.716;23.560;2022-07-12T01:23:34;101111.25;;;13.33;76.58
70521;BME280;58442;52.716;23.560;2022-07-12T01:25:35;101116.34;;;13.35;76.53
70521;BME280;58442;52.716;23.560;2022-07-12T01:27:37;101120.66;;;13.36;76.51
70521;BME280;58442;52.716;23.560;2022-07-12T01:29:41;101113.25;;;13.36;76.51
70521;BME280;58442;52.716;23.560;2022-07-12T01:31:42;101115.98;;;13.36;76.54
70521;BME280;58442;52.716;23.560;2022-07-12T01:33:44;101107.00;;;13.36;76.53
70521;BME280;58442;52.716;23.560;2022-07-12T01:35:46;101101.55;;;13.36;76.51
70521;BME280;58442;52.716;23.560;2022-07-12T01:37:56;101097.66;;;13.37;76.51
70521;BME280;58442;52.716;23.560;2022-07-12T01:39:58;101096.08;;;13.36;76.56
70521;BME280;58442;52.716;23.560;2022-07-12T01:42:00;101089.77;;;13.32;76.64
70521;BME280;58442;52.716;23.560;2022-07-12T01:44:02;101083.85;;;13.30;76.71
70521;BME280;58442;52.716;23.560;2022-07-12T01:46:10;101082.28;;;13.29;76.82
70521;BME280;58442;52.716;23.560;2022-07-12T01:48:17;101079.55;;;13.29;76.86
70521;BME280;58442;52.716;23.560;2022-07-12T01:52:39;101078.40;;;13.30;76.83
70521;BME280;58442;52.716;23.560;2022-07-12T01:54:41;101075.66;;;13.30;76.83
70521;BME280;58442;52.716;23.560;2022-07-12T01:56:47;101071.78;;;13.31;76.83
70521;BME280;58442;52.716;23.560;2022-07-12T01:58:48;101071.78;;;13.31;76.87
70521;BME280;58442;52.716;23.560;2022-07-12T02:00:50;101066.32;;;13.31;76.90
70521;BME280;58442;52.716;23.560;2022-07-12T02:02:54;101067.15;;;13.31;76.89
70521;BME280;58442;52.716;23.560;2022-07-12T02:05:02;101065.99;;;13.32;76.85
70521;BME280;58442;52.716;23.560;2022-07-12T02:07:04;101063.26;;;13.32;76.72
70521;BME280;58442;52.716;23.560;2022-07-12T02:09:06;101070.66;;;13.32;76.82
70521;BME280;58442;52.716;23.560;2022-07-12T02:11:07;101062.89;;;13.34;76.72
70521;BME280;58442;52.716;23.560;2022-07-12T02:13:16;101053.92;;;13.33;76.71
70521;BME280;58442;52.716;23.560;2022-07-12T02:15:17;101061.75;;;13.35;76.70
70521;BME280;58442;52.716;23.560;2022-07-12T02:17:19;101061.75;;;13.35;76.70
70521;BME280;58442;52.716;23.560;2022-07-12T02:19:20;101055.13;;;13.36;76.68
70521;BME280;58442;52.716;23.560;2022-07-12T02:21:31;101053.98;;;13.37;76.73
70521;BME280;58442;52.716;23.560;2022-07-12T02:23:32;101059.45;;;13.37;76.79
70521;BME280;58442;52.716;23.560;2022-07-12T02:25:33;101053.98;;;13.37;76.84
70521;BME280;58442;52.716;23.560;2022-07-12T02:27:34;101052.83;;;13.38;76.90
70521;BME280;58442;52.716;23.560;2022-07-12T02:29:46;101040.78;;;13.39;77.02
70521;BME280;58442;52.716;23.560;2022-07-12T02:31:47;101036.90;;;13.40;77.09
70521;BME280;58442;52.716;23.560;2022-07-12T02:33:48;101042.00;;;13.41;77.12
70521;BME280;58442;52.716;23.560;2022-07-12T02:35:49;101035.80;;;13.45;77.11
70521;BME280;58442;52.716;23.560;2022-07-12T02:38:00;101037.04;;;13.47;77.13
70521;BME280;58442;52.716;23.560;2022-07-12T02:40:02;101028.48;;;13.49;77.20
70521;BME280;58442;52.716;23.560;2022-07-12T02:42:15;101030.84;;;13.50;77.29
70521;BME280;58442;52.716;23.560;2022-07-12T02:44:16;101026.27;;;13.54;77.21
70521;BME280;58442;52.716;23.560;2022-07-12T02:46:19;101023.95;;;13.56;77.27
70521;BME280;58442;52.716;23.560;2022-07-12T02:48:20;101021.64;;;13.58;77.34
70521;BME280;58442;52.716;23.560;2022-07-12T02:50:21;101022.52;;;13.62;77.36
70521;BME280;58442;52.716;23.560;2022-07-12T02:52:22;101019.49;;;13.67;77.32
70521;BME280;58442;52.716;23.560;2022-07-12T02:54:34;101024.23;;;13.71;77.35
70521;BME280;58442;52.716;23.560;2022-07-12T02:56:37;101025.09;;;13.75;77.33
70521;BME280;58442;52.716;23.560;2022-07-12T02:58:38;101016.16;;;13.78;77.37
70521;BME280;58442;52.716;23.560;2022-07-12T03:00:40;101018.98;;;13.81;77.37
70521;BME280;58442;52.716;23.560;2022-07-12T03:02:48;101008.89;;;13.85;77.38
70521;BME280;58442;52.716;23.560;2022-07-12T03:04:50;101011.70;;;13.89;77.44
70521;BME280;58442;52.716;23.560;2022-07-12T03:06:51;101006.66;;;13.91;77.48
70521;BME280;58442;52.716;23.560;2022-07-12T03:08:52;101009.80;;;13.93;77.48
70521;BME280;58442;52.716;23.560;2022-07-12T03:11:03;101007.94;;;13.97;77.54
70521;BME280;58442;52.716;23.560;2022-07-12T03:13:05;101004.49;;;14.00;77.60
70521;BME280;58442;52.716;23.560;2022-07-12T03:15:13;101012.37;;;14.05;77.60
70521;BME280;58442;52.716;23.560;2022-07-12T03:17:16;101004.62;;;14.07;77.58
70521;BME280;58442;52.716;23.560;2022-07-12T03:19:18;101001.51;;;14.09;77.61
70521;BME280;58442;52.716;23.560;2022-07-12T03:21:20;101001.93;;;14.11;77.67
70521;BME280;58442;52.716;23.560;2022-07-12T03:23:21;101002.80;;;14.15;77.70
70521;BME280;58442;52.716;23.560;2022-07-12T03:25:22;101006.34;;;14.19;77.65
70521;BME280;58442;52.716;23.560;2022-07-12T03:27:34;101000.59;;;14.24;77.57
70521;BME280;58442;52.716;23.560;2022-07-12T03:31:49;100993.25;;;14.28;77.55
70521;BME280;58442;52.716;23.560;2022-07-12T03:33:50;100997.19;;;14.31;77.60
70521;BME280;58442;52.716;23.560;2022-07-12T03:35:53;100992.51;;;14.31;77.65
70521;BME280;58442;52.716;23.560;2022-07-12T03:40:15;100995.73;;;14.37;77.58
70521;BME280;58442;52.716;23.560;2022-07-12T03:42:16;100994.19;;;14.39;77.58
70521;BME280;58442;52.716;23.560;2022-07-12T03:44:17;100986.42;;;14.41;77.55
70521;BME280;58442;52.716;23.560;2022-07-12T03:46:18;100983.73;;;14.45;77.55
70521;BME280;58442;52.716;23.560;2022-07-12T03:48:20;100987.70;;;14.47;77.53
70521;BME280;58442;52.716;23.560;2022-07-12T03:50:21;100984.25;;;14.50;77.51
70521;BME280;58442;52.716;23.560;2022-07-12T03:52:33;100977.23;;;14.53;77.53
70521;BME280;58442;52.716;23.560;2022-07-12T03:54:34;100978.47;;;14.56;77.58
70521;BME280;58442;52.716;23.560;2022-07-12T03:56:35;100970.30;;;14.59;77.57
70521;BME280;58442;52.716;23.560;2022-07-12T03:58:53;100976.18;;;14.61;77.58
70521;BME280;58442;52.716;23.560;2022-07-12T04:00:54;100972.73;;;14.64;77.56
70521;BME280;58442;52.716;23.560;2022-07-12T04:02:55;100976.72;;;14.70;77.57
70521;BME280;58442;52.716;23.560;2022-07-12T04:04:56;100977.55;;;14.74;77.51
70521;BME280;58442;52.716;23.560;2022-07-12T04:06:57;100981.92;;;14.79;77.41
70521;BME280;58442;52.716;23.560;2022-07-12T04:09:02;100977.64;;;14.82;77.42
70521;BME280;58442;52.716;23.560;2022-07-12T04:11:05;100975.35;;;14.84;77.44
70521;BME280;58442;52.716;23.560;2022-07-12T04:13:07;100975.76;;;14.86;77.46
70521;BME280;58442;52.716;23.560;2022-07-12T04:15:08;100977.73;;;14.89;77.32
70521;BME280;58442;52.716;23.560;2022-07-12T04:17:17;100977.39;;;14.90;77.33
70521;BME280;58442;52.716;23.560;2022-07-12T04:19:18;100978.59;;;14.93;77.33
70521;BME280;58442;52.716;23.560;2022-07-12T04:21:19;100968.84;;;14.95;77.31
70521;BME280;58442;52.716;23.560;2022-07-12T04:23:21;100969.27;;;14.97;77.27
70521;BME280;58442;52.716;23.560;2022-07-12T04:25:31;100973.21;;;15.00;77.25
70521;BME280;58442;52.716;23.560;2022-07-12T04:27:33;100965.78;;;15.00;77.25
70521;BME280;58442;52.716;23.560;2022-07-12T04:29:34;100965.41;;;15.02;77.26
70521;BME280;58442;52.716;23.560;2022-07-12T04:31:35;100967.01;;;15.03;77.28
70521;BME280;58442;52.716;23.560;2022-07-12T04:33:46;100956.06;;;15.03;77.32
70521;BME280;58442;52.716;23.560;2022-07-12T04:35:47;100958.41;;;15.04;77.38
70521;BME280;58442;52.716;23.560;2022-07-12T04:37:48;100953.34;;;15.07;77.36
70521;BME280;58442;52.716;23.560;2022-07-12T04:39:50;100963.92;;;15.08;77.37
70521;BME280;58442;52.716;23.560;2022-07-12T04:42:01;100955.34;;;15.10;77.47
70521;BME280;58442;52.716;23.560;2022-07-12T04:44:06;100957.34;;;15.13;77.50
70521;BME280;58442;52.716;23.560;2022-07-12T04:46:10;100955.79;;;15.15;77.54
70521;BME280;58442;52.716;23.560;2022-07-12T04:48:12;100951.16;;;15.19;77.48
70521;BME280;58442;52.716;23.560;2022-07-12T04:50:15;100951.19;;;15.23;77.48
70521;BME280;58442;52.716;23.560;2022-07-12T04:52:16;100953.98;;;15.26;77.47
70521;BME280;58442;52.716;23.560;2022-07-12T04:54:18;100955.17;;;15.29;77.44
70521;BME280;58442;52.716;23.560;2022-07-12T04:56:19;100952.44;;;15.29;77.52
70521;BME280;58442;52.716;23.560;2022-07-12T04:58:30;100951.70;;;15.32;77.56
70521;BME280;58442;52.716;23.560;2022-07-12T05:00:31;100946.25;;;15.36;77.56
70521;BME280;58442;52.716;23.560;2022-07-12T05:02:33;100952.16;;;15.38;77.55
70521;BME280;58442;52.716;23.560;2022-07-12T05:04:34;100936.54;;;15.42;77.51
70521;BME280;58442;52.716;23.560;2022-07-12T05:06:48;100937.38;;;15.46;77.50
70521;BME280;58442;52.716;23.560;2022-07-12T05:08:50;100946.41;;;15.50;77.51
70521;BME280;58442;52.716;23.560;2022-07-12T05:13:05;100936.30;;;15.57;77.52
70521;BME280;58442;52.716;23.560;2022-07-12T05:15:07;100935.21;;;15.62;77.50
70521;BME280;58442;52.716;23.560;2022-07-12T05:17:09;100936.05;;;15.66;77.54
70521;BME280;58442;52.716;23.560;2022-07-12T05:19:10;100923.16;;;15.70;77.52
70521;BME280;58442;52.716;23.560;2022-07-12T05:21:11;100922.42;;;15.73;77.51
70521;BME280;58442;52.716;23.560;2022-07-12T05:23:14;100924.43;;;15.80;77.50
70521;BME280;58442;52.716;23.560;2022-07-12T05:25:16;100928.76;;;15.84;77.51
70521;BME280;58442;52.716;23.560;2022-07-12T05:27:17;100925.68;;;15.90;77.48
70521;BME280;58442;52.716;23.560;2022-07-12T05:29:18;100928.08;;;15.95;77.45
70521;BME280;58442;52.716;23.560;2022-07-12T05:36:16;100931.72;;;16.09;77.23
70521;BME280;58442;52.716;23.560;2022-07-12T05:38:17;100921.19;;;16.15;77.23
70521;BME280;58442;52.716;23.560;2022-07-12T05:40:18;100918.09;;;16.20;77.16
70521;BME280;58442;52.716;23.560;2022-07-12T05:42:19;100923.98;;;16.26;77.10
70521;BME280;58442;52.716;23.560;2022-07-12T05:44:27;100924.04;;;16.29;77.08
70521;BME280;58442;52.716;23.560;2022-07-12T05:46:28;100920.51;;;16.32;77.12
70521;BME280;58442;52.716;23.560;2022-07-12T05:48:29;100931.13;;;16.37;77.01
70521;BME280;58442;52.716;23.560;2022-07-12T05:50:30;100922.16;;;16.40;76.95
70521;BME280;58442;52.716;23.560;2022-07-12T05:52:42;100922.95;;;16.45;76.88
70521;BME280;58442;52.716;23.560;2022-07-12T05:55:03;100924.56;;;16.49;76.77
70521;BME280;58442;52.716;23.560;2022-07-12T05:57:05;100921.46;;;16.54;76.71
70521;BME280;58442;52.716;23.560;2022-07-12T05:59:06;100913.63;;;16.60;76.66
70521;BME280;58442;52.716;23.560;2022-07-12T06:01:07;100910.13;;;16.66;76.53
70521;BME280;58442;52.716;23.560;2022-07-12T06:03:18;100916.87;;;16.73;76.40
70521;BME280;58442;52.716;23.560;2022-07-12T06:05:19;100914.54;;;16.78;76.32
70521;BME280;58442;52.716;23.560;2022-07-12T06:07:20;100911.45;;;16.83;76.19
70521;BME280;58442;52.716;23.560;2022-07-12T06:09:21;100906.36;;;16.89;76.01
70521;BME280;58442;52.716;23.560;2022-07-12T06:11:32;100908.72;;;16.94;75.94
70521;BME280;58442;52.716;23.560;2022-07-12T06:13:34;100907.97;;;17.01;75.88
70521;BME280;58442;52.716;23.560;2022-07-12T06:15:35;100902.50;;;17.08;75.72
70521;BME280;58442;52.716;23.560;2022-07-12T06:17:37;100895.85;;;17.12;75.60
70521;BME280;58442;52.716;23.560;2022-07-12T06:19:47;100890.38;;;17.16;75.50
70521;BME280;58442;52.716;23.560;2022-07-12T06:21:49;100895.09;;;17.19;75.42
70521;BME280;58442;52.716;23.560;2022-07-12T06:23:51;100889.61;;;17.22;75.38
70521;BME280;58442;52.716;23.560;2022-07-12T06:25:53;100884.12;;;17.26;75.24
70521;BME280;58442;52.716;23.560;2022-07-12T06:28:04;100892.77;;;17.32;75.11
70521;BME280;58442;52.716;23.560;2022-07-12T06:30:06;100894.34;;;17.33;75.03
70521;BME280;58442;52.716;23.560;2022-07-12T06:32:07;100884.15;;;17.37;74.94
70521;BME280;58442;52.716;23.560;2022-07-12T06:36:29;100874.73;;;17.45;74.70
70521;BME280;58442;52.716;23.560;2022-07-12T06:41:03;100877.87;;;17.47;74.61
70521;BME280;58442;52.716;23.560;2022-07-12T06:43:10;100877.11;;;17.50;74.45
70521;BME280;58442;52.716;23.560;2022-07-12T06:45:13;100881.02;;;17.56;74.35
70521;BME280;58442;52.716;23.560;2022-07-12T06:47:14;100861.40;;;17.61;74.24
70521;BME280;58442;52.716;23.560;2022-07-12T06:49:17;100865.72;;;17.66;74.12
70521;BME280;58442;52.716;23.560;2022-07-12T06:51:18;100867.66;;;17.69;74.00
70521;BME280;58442;52.716;23.560;2022-07-12T06:53:26;100854.76;;;17.73;73.92
70521;BME280;58442;52.716;23.560;2022-07-12T06:55:28;100850.82;;;17.74;73.90
70521;BME280;58442;52.716;23.560;2022-07-12T06:57:32;100866.92;;;17.75;73.82
70521;BME280;58442;52.716;23.560;2022-07-12T06:59:35;100851.21;;;17.76;73.70
70521;BME280;58442;52.716;23.560;2022-07-12T07:01:37;100859.08;;;17.78;73.67
70521;BME280;58442;52.716;23.560;2022-07-12T07:03:38;100864.97;;;17.80;73.59
70521;BME280;58442;52.716;23.560;2022-07-12T07:05:47;100857.50;;;17.80;73.58
70521;BME280;58442;52.716;23.560;2022-07-12T07:10:30;100863.77;;;17.77;73.46
70521;BME280;58442;52.716;23.560;2022-07-12T07:12:31;100862.20;;;17.76;73.42
70521;BME280;58442;52.716;23.560;2022-07-12T07:14:33;100870.45;;;17.76;73.40
70521;BME280;58442;52.716;23.560;2022-07-12T07:16:40;100860.63;;;17.75;73.35
70521;BME280;58442;52.716;23.560;2022-07-12T07:18:44;100865.35;;;17.74;73.32
70521;BME280;58442;52.716;23.560;2022-07-12T07:20:45;100853.58;;;17.74;73.26
70521;BME280;58442;52.716;23.560;2022-07-12T07:22:46;100850.42;;;17.75;73.20
70521;BME280;58442;52.716;23.560;2022-07-12T07:24:48;100848.87;;;17.78;73.15
70521;BME280;58442;52.716;23.560;2022-07-12T07:26:59;100849.26;;;17.80;73.11
70521;BME280;58442;52.716;23.560;2022-07-12T07:29:00;100848.07;;;17.81;73.05
70521;BME280;58442;52.716;23.560;2022-07-12T07:31:13;100840.20;;;17.83;72.96
70521;BME280;58442;52.716;23.560;2022-07-12T07:33:15;100841.77;;;17.84;72.98
70521;BME280;58442;52.716;23.560;2022-07-12T07:35:17;100833.93;;;17.86;72.92
70521;BME280;58442;52.716;23.560;2022-07-12T07:37:18;100830.80;;;17.91;72.82
70521;BME280;58442;52.716;23.560;2022-07-12T07:39:20;100830.77;;;17.95;72.73
70521;BME280;58442;52.716;23.560;2022-07-12T07:41:22;100822.53;;;17.98;72.64
70521;BME280;58442;52.716;23.560;2022-07-12T07:43:32;100823.29;;;18.02;72.58
70521;BME280;58442;52.716;23.560;2022-07-12T07:45:34;100818.17;;;18.04;72.50
70521;BME280;58442;52.716;23.560;2022-07-12T07:47:45;100818.98;;;18.05;72.49
70521;BME280;58442;52.716;23.560;2022-07-12T07:49:47;100820.14;;;18.08;72.48
70521;BME280;58442;52.716;23.560;2022-07-12T07:51:48;100820.91;;;18.12;72.60
70521;BME280;58442;52.716;23.560;2022-07-12T07:53:49;100816.19;;;18.16;72.39
70521;BME280;58442;52.716;23.560;2022-07-12T07:55:50;100813.83;;;18.18;72.35
70521;BME280;58442;52.716;23.560;2022-07-12T07:57:51;100821.30;;;18.21;72.31
70521;BME280;58442;52.716;23.560;2022-07-12T08:00:02;100809.11;;;18.22;72.27
70521;BME280;58442;52.716;23.560;2022-07-12T08:02:04;100812.23;;;18.24;72.18
70521;BME280;58442;52.716;23.560;2022-07-12T08:04:05;100806.36;;;18.25;72.12
70521;BME280;58442;52.716;23.560;2022-07-12T08:06:07;100802.02;;;18.28;72.09
70521;BME280;58442;52.716;23.560;2022-07-12T08:08:17;100798.07;;;18.29;72.09
70521;BME280;58442;52.716;23.560;2022-07-12T08:10:19;100793.73;;;18.35;72.02
70521;BME280;58442;52.716;23.560;2022-07-12T08:12:20;100795.30;;;18.40;71.85
70521;BME280;58442;52.716;23.560;2022-07-12T08:14:21;100793.30;;;18.44;71.77
70521;BME280;58442;52.716;23.560;2022-07-12T08:16:31;100800.38;;;18.45;71.72
70521;BME280;58442;52.716;23.560;2022-07-12T08:18:33;100788.18;;;18.46;71.71
70521;BME280;58442;52.716;23.560;2022-07-12T08:20:34;100776.01;;;18.47;71.68
70521;BME280;58442;52.716;23.560;2022-07-12T08:22:43;100775.22;;;18.46;71.63
70521;BME280;58442;52.716;23.560;2022-07-12T08:24:46;100783.08;;;18.44;71.67
70521;BME280;58442;52.716;23.560;2022-07-12T08:26:47;100785.04;;;18.44;71.66
70521;BME280;58442;52.716;23.560;2022-07-12T08:28:51;100781.13;;;18.41;71.59
70521;BME280;58442;52.716;23.560;2022-07-12T08:30:54;100779.57;;;18.40;71.63
70521;BME280;58442;52.716;23.560;2022-07-12T08:33:00;100776.41;;;18.42;71.58
70521;BME280;58442;52.716;23.560;2022-07-12T08:35:02;100764.22;;;18.43;71.55
70521;BME280;58442;52.716;23.560;2022-07-12T08:37:03;100768.16;;;18.42;71.58
70521;BME280;58442;52.716;23.560;2022-07-12T08:39:05;100761.09;;;18.41;71.55
70521;BME280;58442;52.716;23.560;2022-07-12T08:41:15;100746.92;;;18.39;71.59
70521;BME280;58442;52.716;23.560;2022-07-12T08:43:16;100755.59;;;18.37;71.58
70521;BME280;58442;52.716;23.560;2022-07-12T08:45:17;100757.55;;;18.37;71.55
70521;BME280;58442;52.716;23.560;2022-07-12T08:47:19;100752.86;;;18.34;71.60
70521;BME280;58442;52.716;23.560;2022-07-12T08:49:30;100744.99;;;18.32;71.68
70521;BME280;58442;52.716;23.560;2022-07-12T08:51:32;100745.39;;;18.30;71.70
70521;BME280;58442;52.716;23.560;2022-07-12T08:53:34;100751.70;;;18.27;71.68
70521;BME280;58442;52.716;23.560;2022-07-12T08:55:35;100738.73;;;18.24;71.71
70521;BME280;58442;52.716;23.560;2022-07-12T08:57:45;100739.95;;;18.20;71.80
70521;BME280;58442;52.716;23.560;2022-07-12T08:59:47;100744.26;;;18.17;71.85
70521;BME280;58442;52.716;23.560;2022-07-12T09:01:53;100747.42;;;18.16;71.87
70521;BME280;58442;52.716;23.560;2022-07-12T09:06:11;100753.73;;;18.09;72.00
70521;BME280;58442;52.716;23.560;2022-07-12T09:08:29;100751.01;;;18.06;72.12
70521;BME280;58442;52.716;23.560;2022-07-12T09:10:52;100740.40;;;18.00;72.18
70521;BME280;58442;52.716;23.560;2022-07-12T09:13:04;100765.16;;;17.97;72.22
70521;BME280;58442;52.716;23.560;2022-07-12T09:17:22;100749.88;;;17.85;72.34
70521;BME280;58442;52.716;23.560;2022-07-12T09:19:23;100741.62;;;17.82;72.37
70521;BME280;58442;52.716;23.560;2022-07-12T09:21:28;100743.98;;;17.76;72.48
70521;BME280;58442;52.716;23.560;2022-07-12T09:23:31;100745.20;;;17.71;72.54
70521;BME280;58442;52.716;23.560;2022-07-12T09:25:32;100737.32;;;17.66;72.61
70521;BME280;58442;52.716;23.560;2022-07-12T09:27:34;100740.45;;;17.61;72.71
70521;BME280;58442;52.716;23.560;2022-07-12T09:29:47;100749.88;;;17.57;72.79
70521;BME280;58442;52.716;23.560;2022-07-12T09:34:14;100741.66;;;17.46;73.03
70521;BME280;58442;52.716;23.560;2022-07-12T09:36:27;100742.83;;;17.41;73.22
70521;BME280;58442;52.716;23.560;2022-07-12T09:38:28;100740.48;;;17.40;73.34
70521;BME280;58442;52.716;23.560;2022-07-12T09:40:45;100731.08;;;17.37;73.45
70521;BME280;58442;52.716;23.560;2022-07-12T09:42:48;100727.93;;;17.39;73.56
70521;BME280;58442;52.716;23.560;2022-07-12T09:44:50;100729.89;;;17.38;73.65
70521;BME280;58442;52.716;23.560;2022-07-12T09:46:52;100728.71;;;17.39;73.71
70521;BME280;58442;52.716;23.560;2022-07-12T09:48:54;100727.14;;;17.38;73.78
70521;BME280;58442;52.716;23.560;2022-07-12T09:50:57;100733.82;;;17.37;73.95
70521;BME280;58442;52.716;23.560;2022-07-12T09:53:02;100726.36;;;17.38;74.09
70521;BME280;58442;52.716;23.560;2022-07-12T09:55:06;100721.65;;;17.38;74.13
70521;BME280;58442;52.716;23.560;2022-07-12T09:59:32;100716.93;;;17.39;74.20
70521;BME280;58442;52.716;23.560;2022-07-12T10:01:36;100721.65;;;17.38;74.34
70521;BME280;58442;52.716;23.560;2022-07-12T10:03:40;100729.51;;;17.36;74.26
70521;BME280;58442;52.716;23.560;2022-07-12T10:05:41;100726.35;;;17.34;74.53
70521;BME280;58442;52.716;23.560;2022-07-12T10:07:45;100725.96;;;17.32;74.63
70521;BME280;58442;52.716;23.560;2022-07-12T10:09:50;100707.12;;;17.27;74.79
70521;BME280;58442;52.716;23.560;2022-07-12T10:11:53;100706.73;;;17.25;74.88
70521;BME280;58442;52.716;23.560;2022-07-12T10:13:57;100701.65;;;17.23;74.96
70521;BME280;58442;52.716;23.560;2022-07-12T10:16:01;100702.44;;;17.24;75.01
70521;BME280;58442;52.716;23.560;2022-07-12T10:18:04;100692.62;;;17.23;75.07
70521;BME280;58442;52.716;23.560;2022-07-12T10:22:20;100703.61;;;17.23;75.12
70521;BME280;58442;52.716;23.560;2022-07-12T10:26:37;100712.23;;;17.21;75.29
70521;BME280;58442;52.716;23.560;2022-07-12T10:30:52;100706.74;;;17.18;75.40
70521;BME280;58442;52.716;23.560;2022-07-12T10:32:57;100717.34;;;17.16;75.47
70521;BME280;58442;52.716;23.560;2022-07-12T10:35:02;100723.21;;;17.14;75.55
70521;BME280;58442;52.716;23.560;2022-07-12T10:37:07;100722.45;;;17.10;75.63
70521;BME280;58442;52.716;23.560;2022-07-12T10:39:12;100712.23;;;17.07;75.67
70521;BME280;58442;52.716;23.560;2022-07-12T10:41:18;100708.30;;;17.05;75.72
70521;BME280;58442;52.716;23.560;2022-07-12T10:43:25;100699.69;;;17.03;75.71
70521;BME280;58442;52.716;23.560;2022-07-12T10:45:42;100697.72;;;16.96;75.77
70521;BME280;58442;52.716;23.560;2022-07-12T10:47:55;100697.30;;;16.94;75.79
70521;BME280;58442;52.716;23.560;2022-07-12T10:49:57;100709.88;;;16.91;75.81
70521;BME280;58442;52.716;23.560;2022-07-12T10:54:20;100687.91;;;16.84;75.90
70521;BME280;58442;52.716;23.560;2022-07-12T10:56:25;100700.83;;;16.80;75.97
70521;BME280;58442;52.716;23.560;2022-07-12T10:58:42;100690.64;;;16.77;76.12
70521;BME280;58442;52.716;23.560;2022-07-12T11:03:02;100672.20;;;16.71;76.15
70521;BME280;58442;52.716;23.560;2022-07-12T11:05:05;100683.91;;;16.67;76.25
70521;BME280;58442;52.716;23.560;2022-07-12T11:07:06;100678.05;;;16.65;76.34
70521;BME280;58442;52.716;23.560;2022-07-12T11:09:10;100672.95;;;16.64;76.39
70521;BME280;58442;52.716;23.560;2022-07-12T11:11:12;100672.56;;;16.62;76.42
70521;BME280;58442;52.716;23.560;2022-07-12T11:13:19;100670.19;;;16.60;76.47
70521;BME280;58442;52.716;23.560;2022-07-12T11:15:28;100666.67;;;16.56;76.54
70521;BME280;58442;52.716;23.560;2022-07-12T11:17:40;100655.69;;;16.56;76.56
70521;BME280;58442;52.716;23.560;2022-07-12T11:19:41;100651.75;;;16.54;76.62
70521;BME280;58442;52.716;23.560;2022-07-12T11:21:46;100652.55;;;16.54;76.65
70521;BME280;58442;52.716;23.560;2022-07-12T11:23:48;100655.67;;;16.53;76.71
70521;BME280;58442;52.716;23.560;2022-07-12T11:26:00;100647.09;;;16.54;76.77